Time;durP1;ratioP1;P1;durP2;ratioP2;P2;SDS_P1;SDS_P2;PMS_P1;PMS_P2;Temp;Humidity;BMP_temperature;BMP_pressure;BME280_temperature;BME280_humidity;BME280_pressure;Samples;Min_cycle;Max_cycle;Signal;HPM_P1;HPM_P2
2022/04/15 00:01:37;;;;;;;112.65;22.77;;;9.80;99.90;;;;;;5055398;28;20108;-64
2022/04/15 00:04:03;;;;;;;69.43;18.70;;;9.80;99.90;;;;;;5055186;28;20035;-64
2022/04/15 00:06:29;;;;;;;109.18;18.75;;;9.70;99.90;;;;;;5055381;28;20021;-63
2022/04/15 00:08:55;;;;;;;98.97;21.20;;;9.70;99.90;;;;;;5055360;28;20029;-63
2022/04/15 00:11:20;;;;;;;118.63;23.08;;;9.60;99.90;;;;;;5055392;28;20040;-63
2022/04/15 00:13:47;;;;;;;101.32;22.60;;;9.60;99.90;;;;;;5054860;28;20091;-63
2022/04/15 00:16:13;;;;;;;71.80;22.75;;;9.60;99.90;;;;;;5055891;28;20111;-63
2022/04/15 00:18:39;;;;;;;67.25;21.33;;;9.60;99.90;;;;;;5055452;28;20104;-63
2022/04/15 00:21:05;;;;;;;47.80;20.25;;;9.70;99.90;;;;;;5055896;28;20116;-63
2022/04/15 00:23:31;;;;;;;60.47;19.88;;;9.70;99.90;;;;;;5054421;28;20036;-63
2022/04/15 00:25:57;;;;;;;37.80;20.52;;;9.70;99.90;;;;;;5054893;28;20025;-63
2022/04/15 00:28:23;;;;;;;34.72;19.52;;;9.70;99.90;;;;;;5055253;28;20034;-63
2022/04/15 00:30:49;;;;;;;38.55;16.05;;;9.70;99.90;;;;;;5055383;28;20408;-63
2022/04/15 00:33:15;;;;;;;28.92;14.45;;;9.70;99.90;;;;;;5054283;28;20460;-64
2022/04/15 00:35:41;;;;;;;30.20;16.35;;;9.70;99.90;;;;;;5054420;28;20033;-63
2022/04/15 00:38:07;;;;;;;31.95;16.88;;;9.70;99.90;;;;;;5054734;28;20029;-62
2022/04/15 00:40:32;;;;;;;33.08;16.98;;;9.70;99.90;;;;;;5055091;28;20029;-63
2022/04/15 00:42:58;;;;;;;27.20;13.57;;;9.80;99.90;;;;;;5055041;28;20020;-62
2022/04/15 00:45:24;;;;;;;26.08;13.68;;;9.70;99.90;;;;;;5055080;28;20025;-63
2022/04/15 00:47:53;;;;;;;25.92;13.57;;;9.80;99.90;;;;;;5054717;28;20024;-63
2022/04/15 00:50:21;;;;;;;29.88;14.52;;;9.70;99.90;;;;;;5053098;28;20119;-63
2022/04/15 00:52:48;;;;;;;28.13;14.50;;;9.70;99.90;;;;;;5054185;28;20045;-62
2022/04/15 00:55:15;;;;;;;31.50;14.93;;;9.70;99.90;;;;;;5053731;28;20021;-62
2022/04/15 00:57:43;;;;;;;25.70;12.88;;;9.80;99.90;;;;;;5053361;28;20356;-63
2022/04/15 01:00:11;;;;;;;28.42;12.77;;;9.80;99.90;;;;;;5054493;28;20025;-63
2022/04/15 01:02:37;;;;;;;19.92;9.60;;;9.90;99.90;;;;;;5055097;28;20070;-63
2022/04/15 01:05:06;;;;;;;22.95;11.77;;;9.90;99.90;;;;;;5052479;28;20025;-63
2022/04/15 01:07:36;;;;;;;23.20;10.93;;;9.80;99.90;;;;;;5053607;28;20151;-63
2022/04/15 01:10:06;;;;;;;22.70;10.77;;;9.80;99.90;;;;;;5054401;28;20025;-63
2022/04/15 01:12:36;;;;;;;22.83;10.20;;;9.80;99.90;;;;;;5054324;28;20493;-63
2022/04/15 01:15:05;;;;;;;25.63;12.10;;;9.80;99.90;;;;;;5054789;28;20051;-63
2022/04/15 01:17:33;;;;;;;24.33;11.38;;;9.70;99.90;;;;;;5052485;28;20029;-63
2022/04/15 01:19:59;;;;;;;23.52;11.45;;;9.70;99.90;;;;;;5066459;28;20032;-63
2022/04/15 01:22:31;;;;;;;27.40;11.45;;;9.70;99.90;;;;;;5074673;28;20067;-65
2022/04/15 01:24:58;;;;;;;23.77;11.13;;;9.70;99.90;;;;;;5057416;28;20460;-67
2022/04/15 01:27:27;;;;;;;26.33;13.15;;;9.70;99.90;;;;;;5054564;28;20120;-65
2022/04/15 01:29:52;;;;;;;26.90;12.70;;;9.70;99.90;;;;;;5054493;28;20420;-64
2022/04/15 01:32:18;;;;;;;29.83;14.00;;;9.70;99.90;;;;;;5054096;28;20071;-65
2022/04/15 01:34:44;;;;;;;29.02;12.73;;;9.80;99.90;;;;;;5054513;28;20396;-63
2022/04/15 01:37:13;;;;;;;25.63;12.75;;;9.80;99.90;;;;;;5055954;28;20096;-67
2022/04/15 01:39:39;;;;;;;26.80;12.18;;;9.80;99.90;;;;;;5054458;28;20503;-67
2022/04/15 01:42:05;;;;;;;29.40;13.25;;;9.80;99.90;;;;;;5054611;28;20029;-64
2022/04/15 01:44:30;;;;;;;26.40;12.98;;;9.90;99.90;;;;;;5053977;28;20125;-64
2022/04/15 01:46:56;;;;;;;25.58;12.35;;;9.90;99.90;;;;;;5054306;28;20056;-65
2022/04/15 01:49:21;;;;;;;25.67;11.95;;;9.90;99.90;;;;;;5054024;28;20059;-66
2022/04/15 01:51:47;;;;;;;27.25;12.32;;;9.90;99.90;;;;;;5054195;28;20083;-66
2022/04/15 01:54:12;;;;;;;24.90;12.70;;;9.90;99.90;;;;;;5054701;28;20037;-67
2022/04/15 01:56:39;;;;;;;27.77;12.05;;;10.00;99.90;;;;;;5053783;28;20029;-67
2022/04/15 01:59:09;;;;;;;25.45;12.48;;;10.00;99.90;;;;;;5052754;28;20032;-66
2022/04/15 02:01:35;;;;;;;21.70;10.27;;;10.00;99.90;;;;;;5053967;28;20100;-62
2022/04/15 02:04:00;;;;;;;24.83;12.10;;;10.00;99.90;;;;;;5053857;28;20079;-63
2022/04/15 02:06:26;;;;;;;23.65;11.40;;;10.00;99.90;;;;;;5053693;28;20017;-66
2022/04/15 02:08:52;;;;;;;24.80;12.88;;;10.00;99.90;;;;;;5053720;28;20434;-66
2022/04/15 02:11:17;;;;;;;26.52;12.45;;;10.00;99.90;;;;;;5054212;28;20133;-65
2022/04/15 02:13:43;;;;;;;26.83;12.10;;;10.00;99.90;;;;;;5053438;28;20039;-69
2022/04/15 02:16:09;;;;;;;27.25;13.32;;;10.00;99.90;;;;;;5053405;28;20424;-64
2022/04/15 02:18:34;;;;;;;24.45;11.50;;;10.00;99.90;;;;;;5052720;28;20437;-66
2022/04/15 02:21:00;;;;;;;26.05;11.68;;;10.00;99.90;;;;;;5053573;28;20102;-64
2022/04/15 02:23:25;;;;;;;23.95;12.38;;;10.00;99.90;;;;;;5053368;28;20028;-64
2022/04/15 02:25:51;;;;;;;27.33;13.57;;;10.00;99.90;;;;;;5053220;28;20026;-68
2022/04/15 02:28:16;;;;;;;24.52;12.70;;;10.00;99.90;;;;;;5071586;28;20024;-66
2022/04/15 02:30:42;;;;;;;29.75;13.82;;;10.00;99.90;;;;;;5073243;28;20028;-63
2022/04/15 02:33:07;;;;;;;32.70;13.02;;;10.00;99.90;;;;;;5072934;28;20118;-64
2022/04/15 02:35:33;;;;;;;26.65;13.13;;;10.00;99.90;;;;;;5073277;28;20385;-65
2022/04/15 02:37:59;;;;;;;29.17;13.43;;;10.00;99.90;;;;;;5073332;28;20025;-64
2022/04/15 02:40:25;;;;;;;29.30;13.73;;;10.00;99.90;;;;;;5073175;28;20433;-64
2022/04/15 02:42:50;;;;;;;28.85;12.82;;;10.00;99.90;;;;;;5071552;28;20028;-63
2022/04/15 02:45:16;;;;;;;25.25;12.73;;;10.00;99.90;;;;;;5072175;28;20029;-63
2022/04/15 02:47:42;;;;;;;26.75;13.50;;;10.10;99.90;;;;;;5073076;28;20109;-63
2022/04/15 02:50:08;;;;;;;26.05;12.75;;;10.00;99.90;;;;;;5073117;28;20099;-64
2022/04/15 02:52:34;;;;;;;28.00;12.93;;;10.10;99.90;;;;;;5072720;28;20140;-64
2022/04/15 02:55:00;;;;;;;26.80;14.10;;;10.10;99.90;;;;;;5073352;28;20012;-64
2022/04/15 02:57:26;;;;;;;23.33;11.75;;;10.10;99.90;;;;;;5071469;28;20397;-64
2022/04/15 02:59:51;;;;;;;26.02;10.73;;;10.10;99.90;;;;;;5072386;28;20059;-63
2022/04/15 03:02:17;;;;;;;22.88;12.02;;;10.10;99.90;;;;;;5072263;28;20449;-63
2022/04/15 03:04:42;;;;;;;24.75;11.00;;;10.10;99.90;;;;;;5073061;28;20032;-63
2022/04/15 03:07:08;;;;;;;23.15;11.80;;;10.10;99.90;;;;;;5072687;28;20020;-64
2022/04/15 03:09:33;;;;;;;22.45;11.52;;;10.10;99.90;;;;;;5072767;28;20772;-63
2022/04/15 03:11:59;;;;;;;22.02;11.00;;;10.10;99.90;;;;;;5069317;28;20033;-64
2022/04/15 03:14:25;;;;;;;24.05;10.77;;;10.10;99.90;;;;;;5052584;28;20468;-63
2022/04/15 03:16:50;;;;;;;20.75;9.85;;;10.00;99.90;;;;;;5052764;28;20495;-63
2022/04/15 03:19:16;;;;;;;20.02;9.48;;;10.00;99.90;;;;;;5052915;28;20021;-63
2022/04/15 03:21:42;;;;;;;20.27;9.45;;;10.00;99.90;;;;;;5052823;28;20476;-63
2022/04/15 03:24:07;;;;;;;19.23;8.90;;;10.00;99.90;;;;;;5052344;28;20509;-63
2022/04/15 03:26:33;;;;;;;20.55;9.50;;;9.90;99.90;;;;;;5052409;28;20501;-63
2022/04/15 03:28:59;;;;;;;21.83;9.50;;;9.90;99.90;;;;;;5051875;28;20423;-63
2022/04/15 03:31:24;;;;;;;18.80;8.77;;;9.90;99.90;;;;;;5051172;28;20021;-63
2022/04/15 03:33:50;;;;;;;14.50;7.95;;;9.80;99.90;;;;;;5052451;28;20412;-63
2022/04/15 03:36:15;;;;;;;20.50;7.85;;;9.80;99.90;;;;;;5052891;28;20087;-63
2022/04/15 03:38:41;;;;;;;19.15;8.05;;;9.80;99.90;;;;;;5052456;28;20083;-63
2022/04/15 03:41:07;;;;;;;16.85;7.60;;;9.80;99.90;;;;;;5052465;28;20079;-63
2022/04/15 03:43:33;;;;;;;19.17;8.07;;;9.80;99.90;;;;;;5050732;28;20032;-63
2022/04/15 03:45:59;;;;;;;20.35;8.52;;;9.70;99.90;;;;;;5052419;28;20024;-63
2022/04/15 03:48:25;;;;;;;13.70;7.05;;;9.70;99.90;;;;;;5052502;28;20025;-63
2022/04/15 03:50:53;;;;;;;19.58;8.43;;;9.70;99.90;;;;;;5052591;28;20025;-63
2022/04/15 03:53:19;;;;;;;16.98;7.95;;;9.70;99.90;;;;;;5071104;28;20033;-63
2022/04/15 03:55:45;;;;;;;18.20;8.65;;;9.80;99.90;;;;;;5072109;28;20089;-62
2022/04/15 03:58:13;;;;;;;15.77;8.07;;;9.80;99.90;;;;;;5072325;28;20449;-66
2022/04/15 04:00:39;;;;;;;16.88;7.95;;;9.80;99.90;;;;;;5072229;28;20449;-64
2022/04/15 04:03:04;;;;;;;15.05;7.63;;;9.80;99.90;;;;;;5072324;28;20047;-65
2022/04/15 04:05:30;;;;;;;14.65;7.40;;;9.80;99.90;;;;;;5072212;28;20021;-65
2022/04/15 04:07:56;;;;;;;13.68;6.70;;;9.80;99.90;;;;;;5070238;28;20024;-66
2022/04/15 04:10:21;;;;;;;14.75;6.72;;;9.70;99.90;;;;;;5072053;28;20020;-64
2022/04/15 04:12:48;;;;;;;15.93;7.35;;;9.60;99.90;;;;;;5061778;28;20040;-66
2022/04/15 04:15:14;;;;;;;16.45;7.15;;;9.50;99.90;;;;;;5052176;28;20039;-66
2022/04/15 04:17:40;;;;;;;15.05;7.45;;;9.50;99.90;;;;;;5051989;28;20512;-63
2022/04/15 04:20:09;;;;;;;19.65;7.50;;;9.40;99.90;;;;;;5052041;28;20040;-64
2022/04/15 04:22:36;;;;;;;17.95;6.78;;;9.40;99.90;;;;;;5051752;28;20415;-63
2022/04/15 04:25:03;;;;;;;19.30;7.45;;;9.40;99.90;;;;;;5052755;28;20103;-63
2022/04/15 04:27:30;;;;;;;14.27;6.80;;;9.30;99.90;;;;;;5051565;28;20045;-63
2022/04/15 04:29:56;;;;;;;18.85;7.43;;;9.30;99.90;;;;;;5052053;28;20045;-63
2022/04/15 04:32:21;;;;;;;17.27;7.18;;;9.30;99.90;;;;;;5051778;28;20114;-63
2022/04/15 04:34:47;;;;;;;17.60;7.32;;;9.20;99.90;;;;;;5050531;28;20025;-64
2022/04/15 04:37:13;;;;;;;17.05;7.03;;;9.20;99.90;;;;;;5050256;28;20465;-63
2022/04/15 04:39:39;;;;;;;20.23;7.75;;;9.10;99.90;;;;;;5051642;28;20017;-62
2022/04/15 04:42:06;;;;;;;16.67;7.78;;;9.00;99.90;;;;;;5054482;28;20444;-63
2022/04/15 04:44:32;;;;;;;16.23;7.50;;;9.00;99.90;;;;;;5054211;28;20033;-63
2022/04/15 04:46:58;;;;;;;16.70;7.40;;;8.90;99.90;;;;;;5053770;28;20021;-63
2022/04/15 04:49:24;;;;;;;18.90;8.90;;;8.90;99.90;;;;;;5055084;28;20105;-62
2022/04/15 04:51:50;;;;;;;19.08;8.05;;;8.90;99.90;;;;;;5055323;28;20506;-63
2022/04/15 04:54:16;;;;;;;18.88;8.07;;;8.80;99.90;;;;;;5054927;28;20024;-64
2022/04/15 04:56:42;;;;;;;20.00;7.82;;;8.80;99.90;;;;;;5042949;28;20017;-63
2022/04/15 04:59:07;;;;;;;19.23;7.85;;;8.80;99.90;;;;;;5048360;28;20093;-63
2022/04/15 05:01:33;;;;;;;17.50;8.07;;;8.80;99.90;;;;;;5054246;28;20476;-63
2022/04/15 05:03:58;;;;;;;19.88;7.93;;;8.80;99.90;;;;;;5054664;28;20338;-63
2022/04/15 05:06:24;;;;;;;19.02;8.82;;;8.80;99.90;;;;;;5045113;28;20401;-63
2022/04/15 05:08:50;;;;;;;18.67;8.68;;;8.80;99.90;;;;;;5033183;28;20104;-63
2022/04/15 05:11:16;;;;;;;20.20;8.75;;;8.80;99.90;;;;;;5034868;28;20051;-62
2022/04/15 05:13:41;;;;;;;20.92;8.95;;;8.90;99.90;;;;;;5034862;28;20035;-63
2022/04/15 05:16:07;;;;;;;18.95;7.80;;;8.90;99.90;;;;;;5038072;28;20038;-63
2022/04/15 05:18:32;;;;;;;18.08;7.80;;;8.90;99.90;;;;;;5043313;28;20061;-63
2022/04/15 05:20:58;;;;;;;17.65;7.93;;;9.00;99.90;;;;;;5046590;28;20021;-64
2022/04/15 05:23:23;;;;;;;17.25;7.45;;;9.00;99.90;;;;;;5053427;28;20021;-64
2022/04/15 05:25:49;;;;;;;18.15;8.30;;;9.00;99.90;;;;;;5051735;28;20346;-63
2022/04/15 05:28:15;;;;;;;15.88;7.13;;;9.10;99.90;;;;;;5053820;28;20021;-63
2022/04/15 05:30:40;;;;;;;16.00;7.35;;;9.10;99.90;;;;;;5053841;28;20025;-63
2022/04/15 05:33:06;;;;;;;17.20;7.22;;;9.20;99.90;;;;;;5039060;28;20095;-63
2022/04/15 05:35:31;;;;;;;16.77;7.00;;;9.20;99.90;;;;;;5052031;28;20436;-63
2022/04/15 05:37:57;;;;;;;17.90;8.07;;;9.20;99.90;;;;;;5032794;28;20021;-64
2022/04/15 05:40:23;;;;;;;18.67;7.47;;;9.20;99.90;;;;;;5034251;28;20112;-63
2022/04/15 05:42:49;;;;;;;15.43;6.95;;;9.30;99.90;;;;;;5050149;28;20453;-65
2022/04/15 05:45:15;;;;;;;16.73;7.85;;;9.30;99.90;;;;;;5048160;28;20033;-63
2022/04/15 05:47:40;;;;;;;19.30;7.75;;;9.40;99.90;;;;;;5042364;28;20067;-63
2022/04/15 05:50:07;;;;;;;17.25;7.88;;;9.40;99.90;;;;;;5042956;28;20162;-63
2022/04/15 05:52:33;;;;;;;13.65;6.32;;;9.50;99.90;;;;;;5053121;28;20122;-63
2022/04/15 05:54:59;;;;;;;15.75;7.45;;;9.50;99.90;;;;;;5039226;28;20033;-62
2022/04/15 05:57:25;;;;;;;15.43;6.43;;;9.60;99.90;;;;;;5048194;28;20033;-64
2022/04/15 05:59:50;;;;;;;21.42;7.25;;;9.60;99.90;;;;;;5049992;28;20491;-64
2022/04/15 06:02:16;;;;;;;16.55;6.72;;;9.70;99.90;;;;;;5051750;28;20473;-64
2022/04/15 06:04:42;;;;;;;13.88;5.93;;;9.70;99.90;;;;;;5033759;28;20461;-64
2022/04/15 06:07:07;;;;;;;13.02;6.70;;;9.80;99.90;;;;;;5039658;28;20461;-63
2022/04/15 06:09:33;;;;;;;16.40;6.32;;;9.80;99.90;;;;;;5043422;28;20071;-63
2022/04/15 06:11:58;;;;;;;16.10;6.88;;;9.80;99.90;;;;;;5044316;28;20048;-63
2022/04/15 06:14:24;;;;;;;15.60;6.68;;;9.90;99.90;;;;;;5037405;28;20028;-63
2022/04/15 06:16:51;;;;;;;14.48;6.75;;;10.00;99.90;;;;;;5052551;28;20021;-63
2022/04/15 06:19:16;;;;;;;15.43;7.40;;;10.00;99.90;;;;;;5036134;28;20037;-63
2022/04/15 06:21:42;;;;;;;17.13;8.20;;;10.10;99.90;;;;;;5036686;28;20120;-63
2022/04/15 06:24:08;;;;;;;13.70;6.30;;;10.10;99.90;;;;;;5048435;28;20074;-63
2022/04/15 06:26:37;;;;;;;12.98;6.35;;;10.20;99.90;;;;;;5051170;28;20049;-63
2022/04/15 06:29:04;;;;;;;13.77;6.80;;;10.30;99.90;;;;;;5053239;28;20102;-63
2022/04/15 06:31:29;;;;;;;17.08;6.47;;;10.40;99.90;;;;;;5053259;28;20021;-63
2022/04/15 06:33:56;;;;;;;12.20;5.95;;;10.40;99.90;;;;;;5053867;28;20052;-64
2022/04/15 06:36:22;;;;;;;14.50;7.18;;;10.50;99.90;;;;;;5052289;28;20021;-63
2022/04/15 06:38:48;;;;;;;14.38;5.93;;;10.60;99.90;;;;;;5053230;28;20023;-64
2022/04/15 06:41:14;;;;;;;11.60;5.97;;;10.70;99.90;;;;;;5052291;28;20508;-64
2022/04/15 06:43:39;;;;;;;13.02;6.40;;;10.70;99.90;;;;;;5044510;28;20036;-64
2022/04/15 06:46:05;;;;;;;13.05;5.38;;;10.80;99.90;;;;;;5050494;28;20051;-64
2022/04/15 06:48:31;;;;;;;11.48;5.15;;;11.00;99.90;;;;;;5053227;28;20052;-64
2022/04/15 06:50:57;;;;;;;12.27;5.60;;;11.00;99.90;;;;;;5051010;28;20024;-63
2022/04/15 06:53:23;;;;;;;12.60;6.57;;;11.10;99.90;;;;;;5042569;28;20076;-63
2022/04/15 06:55:49;;;;;;;13.50;5.70;;;11.30;99.90;;;;;;5033226;28;20021;-64
2022/04/15 06:58:15;;;;;;;12.00;5.47;;;11.70;99.90;;;;;;5032959;28;20025;-64
2022/04/15 07:00:41;;;;;;;12.13;5.82;;;12.20;99.90;;;;;;5033145;28;20036;-64
2022/04/15 07:03:09;;;;;;;13.50;5.60;;;12.80;99.90;;;;;;5045289;28;20119;-63
2022/04/15 07:05:34;;;;;;;9.98;4.18;;;13.30;99.90;;;;;;5051765;28;20052;-64
2022/04/15 07:08:00;;;;;;;7.35;4.15;;;13.60;99.90;;;;;;5041481;28;20057;-64
2022/04/15 07:10:25;;;;;;;8.82;3.95;;;13.80;99.90;;;;;;5033408;28;20081;-64
2022/04/15 07:12:51;;;;;;;10.60;4.45;;;14.00;99.90;;;;;;5031995;28;20041;-64
2022/04/15 07:15:17;;;;;;;7.05;3.88;;;14.00;99.90;;;;;;5032621;28;20021;-64
2022/04/15 07:17:42;;;;;;;8.25;3.70;;;14.00;99.90;;;;;;5032639;28;20033;-64
2022/04/15 07:20:08;;;;;;;8.43;3.45;;;14.00;99.90;;;;;;5032404;28;20025;-64
2022/04/15 07:22:34;;;;;;;6.10;2.90;;;14.10;99.90;;;;;;5032808;28;20106;-64
2022/04/15 07:24:59;;;;;;;10.15;3.63;;;14.20;99.90;;;;;;5032635;28;20148;-64
2022/04/15 07:27:25;;;;;;;5.72;3.28;;;14.30;99.90;;;;;;5032632;28;20484;-64
2022/04/15 07:29:52;;;;;;;5.57;3.33;;;14.20;99.90;;;;;;5032630;28;20433;-63
2022/04/15 07:32:21;;;;;;;3.05;2.53;;;14.10;99.90;;;;;;5032719;28;20108;-64
2022/04/15 07:34:47;;;;;;;4.88;2.17;;;13.90;99.90;;;;;;5032336;28;20029;-64
2022/04/15 07:37:12;;;;;;;7.78;3.00;;;13.80;99.90;;;;;;5033133;28;20089;-64
2022/04/15 07:39:38;;;;;;;8.02;3.45;;;13.90;99.90;;;;;;5032747;28;20049;-63
2022/04/15 07:42:04;;;;;;;8.00;3.38;;;14.00;99.90;;;;;;5032672;28;20027;-64
2022/04/15 07:44:30;;;;;;;7.65;3.00;;;14.10;99.90;;;;;;5032776;28;20452;-64
2022/04/15 07:46:56;;;;;;;10.65;3.33;;;14.30;99.90;;;;;;5032341;28;20112;-64
2022/04/15 07:49:21;;;;;;;8.25;3.50;;;14.40;99.90;;;;;;5031992;28;20021;-64
2022/04/15 07:51:48;;;;;;;7.03;3.35;;;14.50;99.90;;;;;;5031030;28;20030;-64
2022/04/15 07:54:14;;;;;;;7.75;3.40;;;14.80;99.90;;;;;;5031052;28;20450;-64
2022/04/15 07:56:40;;;;;;;8.52;3.40;;;15.30;99.90;;;;;;5032422;28;20035;-64
2022/04/15 07:59:06;;;;;;;8.55;3.80;;;15.90;99.90;;;;;;5031908;28;20104;-64
2022/04/15 08:01:31;;;;;;;9.48;4.22;;;16.60;99.90;;;;;;5032171;28;20025;-64
2022/04/15 08:03:58;;;;;;;8.05;3.42;;;17.00;99.80;;;;;;5031087;28;20469;-64
2022/04/15 08:06:25;;;;;;;8.95;3.63;;;17.60;98.90;;;;;;5032508;28;20079;-64
2022/04/15 08:08:54;;;;;;;5.15;3.35;;;17.80;98.20;;;;;;5031044;28;20427;-66
2022/04/15 08:11:20;;;;;;;7.20;3.38;;;17.70;98.20;;;;;;5032262;28;20017;-64
2022/04/15 08:13:46;;;;;;;8.55;3.28;;;17.50;98.50;;;;;;5032596;28;20079;-66
2022/04/15 08:16:11;;;;;;;8.50;3.35;;;17.50;98.00;;;;;;5033012;28;20022;-64
2022/04/15 08:18:37;;;;;;;7.03;3.13;;;17.30;98.10;;;;;;5035698;28;20022;-62
2022/04/15 08:21:03;;;;;;;7.43;3.40;;;17.10;98.50;;;;;;5036322;28;20033;-67
2022/04/15 08:23:28;;;;;;;4.72;2.40;;;17.50;98.70;;;;;;5035974;28;20026;-67
2022/04/15 08:25:54;;;;;;;4.28;2.60;;;18.70;97.60;;;;;;5035964;28;20029;-66
2022/04/15 08:28:20;;;;;;;4.10;2.30;;;19.50;95.60;;;;;;5035932;28;20022;-66
2022/04/15 08:30:45;;;;;;;9.82;3.40;;;19.50;95.20;;;;;;5035776;28;20400;-62
2022/04/15 08:33:11;;;;;;;6.35;2.70;;;19.10;95.30;;;;;;5035674;28;20041;-65
2022/04/15 08:35:37;;;;;;;5.55;2.88;;;18.80;95.40;;;;;;5036019;28;20380;-66
2022/04/15 08:38:03;;;;;;;5.90;3.22;;;18.60;95.70;;;;;;5036142;28;20379;-65
2022/04/15 08:40:31;;;;;;;6.07;3.17;;;18.30;95.80;;;;;;5035824;28;20029;-63
2022/04/15 08:42:58;;;;;;;5.00;3.13;;;18.80;95.70;;;;;;5035509;28;20026;-65
2022/04/15 08:45:28;;;;;;;5.22;2.92;;;19.20;94.70;;;;;;5035541;28;20100;-66
2022/04/15 08:47:59;;;;;;;5.18;2.80;;;18.90;95.10;;;;;;5036084;28;20037;-65
2022/04/15 08:50:26;;;;;;;7.07;2.70;;;19.00;95.10;;;;;;5035749;28;20024;-65
2022/04/15 08:52:53;;;;;;;5.85;2.90;;;19.50;94.30;;;;;;5035845;28;20037;-66
2022/04/15 08:55:21;;;;;;;5.22;3.08;;;19.40;94.30;;;;;;5035371;28;20025;-67
2022/04/15 08:57:47;;;;;;;8.20;3.42;;;19.50;94.40;;;;;;5035774;28;20400;-67
2022/04/15 09:00:13;;;;;;;5.63;3.33;;;19.80;94.10;;;;;;5035374;28;20450;-68
2022/04/15 09:02:39;;;;;;;5.20;2.97;;;20.00;93.70;;;;;;5035569;28;20053;-65
2022/04/15 09:05:05;;;;;;;6.75;2.95;;;20.00;93.40;;;;;;5035547;28;20484;-67
2022/04/15 09:07:33;;;;;;;5.63;3.15;;;19.70;93.60;;;;;;5033928;28;20577;-66
2022/04/15 09:10:01;;;;;;;6.88;3.88;;;19.40;94.00;;;;;;5035176;28;20067;-66
2022/04/15 09:12:35;;;;;;;6.82;3.97;;;19.30;94.10;;;;;;5035306;28;20037;-67
2022/04/15 09:15:08;;;;;;;8.30;4.18;;;19.50;94.30;;;;;;5035287;28;20109;-66
2022/04/15 09:17:49;;;;;;;6.40;3.30;;;19.90;93.50;;;;;;5035230;28;20025;-65
2022/04/15 09:20:16;;;;;;;6.60;3.13;;;20.20;93.20;;;;;;5035210;28;20028;-66
2022/04/15 09:22:42;;;;;;;8.73;3.85;;;20.30;92.60;;;;;;5035192;28;20025;-68
2022/04/15 09:25:10;;;;;;;7.95;3.85;;;20.10;92.80;;;;;;5035005;28;20034;-66
2022/04/15 09:27:36;;;;;;;6.53;3.42;;;20.20;92.70;;;;;;5034191;28;20045;-63
2022/04/15 09:30:04;;;;;;;5.28;3.42;;;20.10;92.60;;;;;;5034890;28;20108;-67
2022/04/15 09:32:30;;;;;;;4.45;3.10;;;20.20;92.70;;;;;;5033335;28;20373;-65
2022/04/15 09:35:07;;;;;;;5.28;3.55;;;20.00;92.60;;;;;;5034930;28;20044;-66
2022/04/15 09:37:44;;;;;;;4.80;3.67;;;20.10;92.80;;;;;;5034637;28;20580;-64
2022/04/15 09:40:14;;;;;;;5.20;3.67;;;20.40;92.60;;;;;;5034871;28;20133;-65
2022/04/15 09:42:50;;;;;;;10.52;4.40;;;20.50;92.20;;;;;;5034723;28;20017;-63
2022/04/15 09:45:27;;;;;;;5.88;4.05;;;20.20;92.50;;;;;;5033372;28;20416;-68
2022/04/15 09:48:07;;;;;;;9.05;5.03;;;20.00;92.90;;;;;;5033391;28;20374;-63
2022/04/15 09:50:37;;;;;;;4.72;3.33;;;19.80;92.80;;;;;;5034590;28;20076;-65
2022/04/15 09:53:23;;;;;;;4.53;3.53;;;19.60;93.00;;;;;;5034528;28;20041;-64
2022/04/15 09:55:50;;;;;;;7.20;3.78;;;20.10;92.50;;;;;;5034642;28;20021;-65
2022/04/15 09:58:28;;;;;;;10.23;3.67;;;20.60;92.00;;;;;;5034341;28;20021;-66
2022/04/15 10:00:56;;;;;;;10.52;4.78;;;20.80;91.40;;;;;;5034382;28;20029;-66
2022/04/15 10:03:24;;;;;;;6.78;3.10;;;20.80;91.50;;;;;;5034461;28;20029;-63
2022/04/15 10:05:50;;;;;;;5.88;2.78;;;20.70;91.20;;;;;;5034151;28;20072;-64
2022/04/15 10:08:20;;;;;;;5.40;3.05;;;20.70;91.10;;;;;;5034171;28;20446;-65
2022/04/15 10:10:46;;;;;;;4.55;2.90;;;20.90;91.10;;;;;;5034228;28;20109;-63
2022/04/15 10:13:14;;;;;;;6.63;2.90;;;20.80;91.20;;;;;;5033973;28;20033;-63
2022/04/15 10:15:40;;;;;;;5.43;2.67;;;21.20;91.10;;;;;;5033739;28;20369;-62
2022/04/15 10:18:06;;;;;;;4.85;2.75;;;22.00;90.00;;;;;;5034180;28;20465;-66
2022/04/15 10:20:32;;;;;;;5.45;3.00;;;23.10;87.60;;;;;;5034019;28;20028;-65
2022/04/15 10:23:06;;;;;;;6.28;2.90;;;24.30;85.10;;;;;;5033751;28;20101;-68
2022/04/15 10:25:33;;;;;;;7.05;3.50;;;25.50;82.20;;;;;;5046633;28;20449;-67
2022/04/15 10:28:37;;;;;;;6.63;3.22;;;26.10;79.10;;;;;;5070343;28;20049;-68
2022/04/15 10:31:11;;;;;;;5.78;2.90;;;26.60;77.80;;;;;;5022411;28;20060;-66
2022/04/15 10:33:39;;;;;;;5.18;3.22;;;27.60;75.40;;;;;;5053896;28;20426;-67
2022/04/15 10:36:14;;;;;;;6.82;3.13;;;28.50;71.70;;;;;;5073171;28;20070;-68
2022/04/15 10:39:02;;;;;;;3.90;2.55;;;28.80;69.90;;;;;;5071514;28;20025;-65
2022/04/15 10:41:28;;;;;;;5.72;2.78;;;28.70;67.20;;;;;;5069199;28;20016;-64
2022/04/15 10:44:00;;;;;;;6.95;3.22;;;28.60;66.50;;;;;;5058875;28;20025;-65
2022/04/15 10:46:30;;;;;;;5.70;2.78;;;28.40;66.80;;;;;;5053217;28;20140;-64
2022/04/15 10:49:00;;;;;;;7.55;3.25;;;28.00;65.40;;;;;;5053237;28;20187;-64
2022/04/15 10:51:29;;;;;;;5.93;2.92;;;27.50;65.90;;;;;;5053106;28;20013;-64
2022/04/15 10:54:15;;;;;;;7.43;2.80;;;27.70;66.10;;;;;;5052231;28;20040;-64
2022/04/15 10:57:01;;;;;;;5.75;2.92;;;27.20;65.80;;;;;;5052931;28;20111;-63
2022/04/15 11:02:20;;;;;;;4.95;2.88;;;27.10;66.70;;;;;;5052973;28;20032;-63
2022/04/15 11:04:49;;;;;;;9.23;3.65;;;27.70;65.30;;;;;;5052896;28;20017;-63
2022/04/15 11:07:29;;;;;;;10.80;3.90;;;27.90;65.30;;;;;;5052678;28;20468;-63
2022/04/15 11:13:34;;;;;;;8.52;3.33;;;29.10;64.00;;;;;;5045363;28;20503;-63
2022/04/15 11:16:00;;;;;;;6.35;3.78;;;29.80;62.10;;;;;;5052953;28;20029;-63
2022/04/15 11:18:50;;;;;;;9.80;3.70;;;29.60;62.00;;;;;;5052886;28;20017;-63
2022/04/15 11:21:37;;;;;;;7.43;3.60;;;28.90;62.10;;;;;;5053160;28;20021;-63
2022/04/15 11:24:07;;;;;;;8.52;4.00;;;28.60;62.50;;;;;;5051394;28;20465;-63
2022/04/15 11:26:35;;;;;;;5.47;3.58;;;28.10;62.40;;;;;;5052555;28;20044;-63
2022/04/15 11:29:03;;;;;;;6.93;3.88;;;28.20;62.80;;;;;;5052800;28;20037;-64
2022/04/15 11:31:33;;;;;;;10.15;4.28;;;28.80;61.80;;;;;;5052693;28;20021;-64
2022/04/15 11:34:10;;;;;;;6.03;3.83;;;29.10;61.20;;;;;;5060668;28;20028;-63
2022/04/15 11:36:40;;;;;;;7.35;3.70;;;29.30;60.90;;;;;;5052648;28;20040;-64
2022/04/15 11:39:09;;;;;;;5.97;3.70;;;28.60;61.00;;;;;;5052823;28;20036;-64
2022/04/15 11:41:35;;;;;;;7.20;4.00;;;27.60;61.90;;;;;;5052497;28;20070;-63
2022/04/15 11:44:02;;;;;;;6.60;3.67;;;27.40;62.20;;;;;;5052571;28;20029;-64
2022/04/15 11:46:38;;;;;;;8.95;4.18;;;27.00;62.70;;;;;;5052616;28;20098;-62
2022/04/15 11:49:11;;;;;;;8.13;3.88;;;25.90;64.60;;;;;;5052748;28;20039;-64
2022/04/15 11:51:36;;;;;;;6.88;4.20;;;25.40;65.80;;;;;;5055591;28;20017;-64
2022/04/15 11:54:02;;;;;;;12.05;4.50;;;25.40;65.30;;;;;;5056641;28;20029;-63
2022/04/15 11:56:29;;;;;;;9.18;4.65;;;25.00;65.80;;;;;;5056392;28;20028;-64
2022/04/15 11:58:57;;;;;;;6.80;4.35;;;24.60;66.50;;;;;;5056571;28;20016;-64
2022/04/15 12:01:31;;;;;;;13.25;5.30;;;24.90;66.00;;;;;;5056389;28;20330;-64
2022/04/15 12:03:58;;;;;;;8.27;4.22;;;25.00;65.70;;;;;;5056640;28;20511;-64
2022/04/15 12:06:23;;;;;;;11.20;4.70;;;24.60;66.90;;;;;;5056439;28;20021;-64
2022/04/15 12:08:49;;;;;;;12.38;6.78;;;24.20;67.60;;;;;;5056294;28;20028;-63
2022/04/15 12:11:21;;;;;;;9.05;4.43;;;24.00;67.90;;;;;;5056198;28;20076;-64
2022/04/15 12:13:47;;;;;;;7.10;4.78;;;23.60;68.90;;;;;;5056018;28;20349;-63
2022/04/15 12:16:13;;;;;;;8.48;5.05;;;23.30;69.50;;;;;;5055939;28;20342;-64
2022/04/15 12:18:39;;;;;;;7.88;4.65;;;23.40;69.40;;;;;;5056602;28;20031;-63
2022/04/15 12:21:05;;;;;;;7.45;4.70;;;23.80;68.80;;;;;;5056302;28;20025;-64
2022/04/15 12:23:30;;;;;;;9.30;4.90;;;24.40;67.70;;;;;;5055837;28;20025;-64
2022/04/15 12:26:07;;;;;;;9.07;4.47;;;25.10;67.60;;;;;;5056206;28;20025;-64
2022/04/15 12:31:33;;;;;;;6.60;4.10;;;26.60;66.20;;;;;;5055155;28;20063;-64
2022/04/15 12:34:01;;;;;;;6.68;4.43;;;27.10;64.80;;;;;;5056049;28;20039;-64
2022/04/15 12:36:45;;;;;;;7.18;4.70;;;27.40;64.20;;;;;;5055958;28;20040;-64
2022/04/15 12:39:12;;;;;;;6.60;4.30;;;27.10;64.20;;;;;;5055969;28;20029;-64
2022/04/15 12:41:47;;;;;;;8.85;5.22;;;26.60;64.50;;;;;;5055890;28;20074;-64
2022/04/15 12:44:15;;;;;;;9.40;5.18;;;26.20;65.20;;;;;;5054381;28;20243;-64
2022/04/15 12:46:43;;;;;;;7.95;4.07;;;26.10;65.40;;;;;;5055473;28;20411;-64
2022/04/15 12:49:22;;;;;;;12.20;4.72;;;26.20;65.10;;;;;;5055464;28;20028;-66
2022/04/15 12:51:48;;;;;;;8.27;4.55;;;26.10;64.60;;;;;;5055470;28;20468;-64
2022/04/15 12:54:13;;;;;;;8.02;4.85;;;25.80;64.70;;;;;;5055281;28;20373;-63